createdAt,value
2023-02-27T00:00:21.642Z,8.47
2023-02-27T00:00:43.304Z,8.49
2023-02-27T00:01:06.375Z,8.47
2023-02-27T00:01:29.178Z,8.51
2023-02-27T00:01:50.789Z,8.54
2023-02-27T00:02:12.386Z,8.56
2023-02-27T00:02:37.078Z,8.59
2023-02-27T00:02:59.784Z,8.61
2023-02-27T00:03:21.462Z,8.44
2023-02-27T00:03:43.114Z,8.48
2023-02-27T00:04:06.067Z,8.55
2023-02-27T00:04:29.152Z,8.50
2023-02-27T00:04:50.777Z,8.55
2023-02-27T00:05:12.865Z,8.61
2023-02-27T00:05:34.469Z,8.61
2023-02-27T00:05:57.867Z,8.65
2023-02-27T00:06:19.462Z,8.67
2023-02-27T00:06:41.177Z,8.69
2023-02-27T00:07:04.014Z,8.72
2023-02-27T00:07:28.662Z,8.61
2023-02-27T00:07:50.985Z,8.64
2023-02-27T00:08:15.529Z,8.64
2023-02-27T00:08:38.170Z,8.70
2023-02-27T00:09:00.232Z,8.61
2023-02-27T00:09:21.937Z,8.64
2023-02-27T00:09:43.778Z,8.68
2023-02-27T00:10:07.728Z,8.66
2023-02-27T00:10:29.312Z,8.69
2023-02-27T00:10:50.936Z,8.68
2023-02-27T00:11:12.787Z,8.63
2023-02-27T00:11:35.620Z,8.71
2023-02-27T00:11:57.286Z,8.74
2023-02-27T00:12:19.156Z,8.76
2023-02-27T00:12:41.229Z,8.76
2023-02-27T00:13:03.869Z,8.68
2023-02-27T00:13:25.756Z,8.76
2023-02-27T00:13:49.160Z,8.77
2023-02-27T00:14:10.924Z,8.77
2023-02-27T00:14:33.568Z,8.77
2023-02-27T00:14:55.134Z,8.70
2023-02-27T00:15:19.800Z,8.66
2023-02-27T00:15:41.392Z,8.71
2023-02-27T00:16:04.027Z,8.61
2023-02-27T00:16:25.670Z,8.59
2023-02-27T00:16:47.295Z,8.62
2023-02-27T00:17:08.900Z,8.61
2023-02-27T00:17:31.541Z,8.60
2023-02-27T00:17:56.223Z,8.64
2023-02-27T00:18:18.056Z,8.60
2023-02-27T00:18:39.702Z,8.53
2023-02-27T00:19:04.670Z,8.51
2023-02-27T00:19:26.893Z,8.55
2023-02-27T00:19:48.585Z,8.57
2023-02-27T00:20:13.729Z,8.54
2023-02-27T00:20:38.034Z,8.58
2023-02-27T00:20:59.720Z,8.48
2023-02-27T00:21:21.311Z,8.58
2023-02-27T00:21:44.559Z,8.61
2023-02-27T00:22:07.067Z,8.65
2023-02-27T00:22:28.697Z,8.64
2023-02-27T00:22:50.404Z,8.61
2023-02-27T00:23:12.008Z,8.66
2023-02-27T00:23:35.197Z,8.66
2023-02-27T00:23:57.024Z,8.54
2023-02-27T00:24:18.953Z,8.53
2023-02-27T00:45:08.996Z,7.99
2023-02-27T00:46:22.995Z,7.98
2023-02-27T00:46:47.107Z,7.90
2023-02-27T00:47:08.718Z,7.92
2023-02-27T00:47:30.407Z,7.86
2023-02-27T00:47:52.052Z,7.90
2023-02-27T00:48:15.351Z,7.94
2023-02-27T00:48:37.381Z,7.97
2023-02-27T00:48:59.022Z,7.96
2023-02-27T00:49:20.816Z,8.00
2023-02-27T00:49:43.380Z,8.03
2023-02-27T00:50:05.908Z,8.06
2023-02-27T00:50:27.641Z,8.10
2023-02-27T00:50:50.689Z,8.05
2023-02-27T00:51:13.393Z,8.13
2023-02-27T00:51:35.264Z,8.13
2023-02-27T00:51:58.093Z,8.12
2023-02-27T00:52:19.717Z,8.10
2023-02-27T00:52:42.400Z,8.13
2023-02-27T00:53:04.027Z,8.15
2023-02-27T00:53:26.721Z,8.18
2023-02-27T00:53:48.845Z,8.22
2023-02-27T00:54:11.450Z,8.03
2023-02-27T00:54:32.978Z,8.20
2023-02-27T00:54:55.464Z,8.22
2023-02-27T00:55:17.218Z,8.27
2023-02-27T00:55:39.802Z,8.29
2023-02-27T00:56:01.418Z,8.30
2023-02-27T00:56:23.117Z,8.32
2023-02-27T00:56:45.350Z,8.34
2023-02-27T00:57:09.235Z,8.33
2023-02-27T00:57:31.032Z,8.36
2023-02-27T00:57:52.950Z,8.39
2023-02-27T00:58:15.776Z,8.39
2023-02-27T00:58:37.665Z,8.42
2023-02-27T00:58:59.318Z,8.45
2023-02-27T00:59:21.593Z,8.48
2023-02-27T00:59:44.147Z,8.48
2023-02-27T01:00:10.029Z,8.39
2023-02-27T01:00:32.085Z,8.52
2023-02-27T01:00:55.838Z,8.56
2023-02-27T01:01:18.845Z,8.58
2023-02-27T01:01:40.700Z,8.57
2023-02-27T01:02:02.584Z,8.53
2023-02-27T01:02:25.813Z,8.58
2023-02-27T01:02:50.178Z,8.57
2023-02-27T01:03:11.921Z,8.54
2023-02-27T01:03:33.719Z,8.54
2023-02-27T01:03:56.337Z,8.59
2023-02-27T01:04:18.007Z,8.61
2023-02-27T01:04:39.872Z,8.62
2023-02-27T01:05:02.461Z,8.63
2023-02-27T01:05:26.497Z,8.66
2023-02-27T01:05:48.144Z,8.67
2023-02-27T01:06:09.776Z,8.65
2023-02-27T01:06:31.675Z,8.67
2023-02-27T01:06:53.518Z,8.56
2023-02-27T01:07:16.146Z,8.59
2023-02-27T01:07:37.807Z,8.61
2023-02-27T01:07:59.553Z,8.62
2023-02-27T01:08:21.269Z,8.63
2023-02-27T01:08:43.915Z,8.62
2023-02-27T01:09:05.861Z,8.63
2023-02-27T01:09:29.043Z,8.64
2023-02-27T01:09:50.625Z,8.66
2023-02-27T01:10:16.091Z,8.65
2023-02-27T01:10:38.097Z,8.68
2023-02-27T01:11:01.601Z,8.68
2023-02-27T01:11:27.149Z,8.64
2023-02-27T01:11:50.843Z,8.64
2023-02-27T01:12:12.589Z,8.65
2023-02-27T01:12:34.235Z,8.68
2023-02-27T01:12:55.910Z,8.71
2023-02-27T01:13:18.489Z,8.73
2023-02-27T01:13:40.145Z,8.76
2023-02-27T01:33:00.860Z,8.55
2023-02-27T01:33:51.355Z,8.58
2023-02-27T01:34:39.242Z,8.56
2023-02-27T01:35:01.071Z,8.56
2023-02-27T01:35:22.820Z,8.61
2023-02-27T01:35:44.557Z,8.60
2023-02-27T01:36:08.916Z,8.59
2023-02-27T01:36:30.541Z,8.62
2023-02-27T01:37:34.490Z,8.59
2023-02-27T01:37:57.110Z,8.60
2023-02-27T01:38:18.749Z,8.58
2023-02-27T01:38:40.432Z,8.61
2023-02-27T01:39:02.151Z,8.62
2023-02-27T01:39:26.141Z,8.64
2023-02-27T01:39:47.748Z,8.65
2023-02-27T01:40:10.461Z,8.65
2023-02-27T01:40:36.036Z,8.63
2023-02-27T01:40:57.689Z,8.64
2023-02-27T01:41:20.291Z,8.62
2023-02-27T01:41:41.893Z,8.61
2023-02-27T01:42:04.011Z,8.61
2023-02-27T01:42:27.879Z,8.60
2023-02-27T01:42:52.373Z,8.61
2023-02-27T01:43:16.362Z,8.61
2023-02-27T01:43:54.127Z,8.56
2023-02-27T01:44:15.927Z,8.60
2023-02-27T01:45:32.351Z,8.66
2023-02-27T01:45:54.257Z,8.64
2023-02-27T01:46:15.899Z,8.64
2023-02-27T01:46:40.096Z,8.55
2023-02-27T01:47:02.677Z,8.58
2023-02-27T01:47:24.260Z,8.58
2023-02-27T01:47:48.464Z,8.62
2023-02-27T01:48:18.295Z,8.62
2023-02-27T01:48:41.018Z,8.62
2023-02-27T01:49:07.988Z,8.63
2023-02-27T01:49:33.588Z,8.62
2023-02-27T01:49:55.781Z,8.68
2023-02-27T01:50:19.285Z,8.62
2023-02-27T01:50:47.659Z,8.64
2023-02-27T01:51:14.328Z,8.65
2023-02-27T01:51:40.174Z,8.67
2023-02-27T01:52:07.053Z,8.68
2023-02-27T01:52:31.186Z,8.67
2023-02-27T01:52:56.155Z,8.63
2023-02-27T01:53:19.511Z,8.66
2023-02-27T01:53:45.154Z,8.65
2023-02-27T01:54:09.908Z,8.69
2023-02-27T01:54:35.032Z,8.70
2023-02-27T01:54:59.281Z,8.70
2023-02-27T01:55:22.966Z,8.70
2023-02-27T01:55:47.700Z,8.66
2023-02-27T01:56:17.890Z,8.70
2023-02-27T01:56:41.494Z,8.73
2023-02-27T01:57:06.621Z,8.73
2023-02-27T01:57:28.368Z,8.76
2023-02-27T01:57:51.395Z,8.76
2023-02-27T01:58:14.854Z,8.74
2023-02-27T01:58:38.547Z,8.77
2023-02-27T01:59:03.435Z,8.68
2023-02-27T01:59:25.597Z,8.77
2023-02-27T01:59:47.250Z,8.76
2023-02-27T02:00:10.503Z,8.76
2023-02-27T02:00:36.060Z,8.77
2023-02-27T02:00:57.714Z,8.76
2023-02-27T02:01:20.466Z,8.74
2023-02-27T02:01:43.455Z,8.79
2023-02-27T02:02:09.566Z,8.77
2023-02-27T02:02:37.146Z,8.76
2023-02-27T02:03:07.341Z,8.78
2023-02-27T02:20:26.940Z,8.33
2023-02-27T02:21:31.847Z,8.34
2023-02-27T02:22:25.168Z,8.32
2023-02-27T02:23:21.972Z,8.36
2023-02-27T02:24:19.843Z,8.37
2023-02-27T02:25:37.591Z,8.35
2023-02-27T02:26:24.696Z,8.41
2023-02-27T02:27:03.911Z,8.41
2023-02-27T02:27:39.643Z,8.44
2023-02-27T02:28:13.540Z,8.48
2023-02-27T02:29:02.513Z,8.48
2023-02-27T02:30:13.700Z,8.41
2023-02-27T02:31:04.776Z,8.42
2023-02-27T02:31:56.324Z,8.44
2023-02-27T02:32:48.819Z,8.43
2023-02-27T02:33:39.506Z,8.39
2023-02-27T02:34:25.634Z,8.36
2023-02-27T02:35:27.922Z,8.42
2023-02-27T02:36:35.648Z,8.41
2023-02-27T02:37:23.416Z,8.45
2023-02-27T02:38:08.596Z,8.42
2023-02-27T02:38:48.944Z,8.36
2023-02-27T02:39:25.830Z,8.40
2023-02-27T02:40:05.818Z,8.36
2023-02-27T02:40:35.912Z,8.43
2023-02-27T02:41:08.257Z,8.43
2023-02-27T02:41:42.618Z,8.39
2023-02-27T02:42:10.927Z,8.44
2023-02-27T02:42:39.648Z,8.41
2023-02-27T02:43:08.466Z,8.39
2023-02-27T02:43:40.903Z,8.23
2023-02-27T02:44:09.206Z,8.36
2023-02-27T02:44:40.728Z,8.44
2023-02-27T02:45:13.807Z,8.49
2023-02-27T02:45:44.872Z,8.43
2023-02-27T02:46:13.469Z,8.45
2023-02-27T02:46:43.990Z,8.44
2023-02-27T02:47:13.401Z,8.41
2023-02-27T02:47:43.372Z,8.43
2023-02-27T02:48:12.082Z,8.41
2023-02-27T02:48:44.207Z,8.43
2023-02-27T02:49:15.278Z,8.37
2023-02-27T02:49:45.688Z,8.43
2023-02-27T02:50:13.546Z,8.41
2023-02-27T02:50:44.020Z,8.42
2023-02-27T03:09:54.426Z,8.09
2023-02-27T03:10:39.795Z,8.07
2023-02-27T03:11:03.731Z,8.00
2023-02-27T03:11:30.688Z,8.11
2023-02-27T03:11:57.177Z,7.97
2023-02-27T03:12:22.505Z,8.08
2023-02-27T03:12:49.716Z,8.00
2023-02-27T03:13:18.836Z,8.03
2023-02-27T03:13:47.841Z,8.09
2023-02-27T03:14:13.402Z,8.09
2023-02-27T03:14:40.761Z,7.95
2023-02-27T03:15:07.241Z,8.17
2023-02-27T03:15:33.603Z,8.19
2023-02-27T03:16:02.213Z,8.17
2023-02-27T03:16:29.578Z,8.16
2023-02-27T03:16:55.924Z,8.24
2023-02-27T03:17:24.004Z,8.25
2023-02-27T03:17:49.509Z,8.28
2023-02-27T03:18:20.621Z,8.21
2023-02-27T03:18:49.304Z,8.16
2023-02-27T03:19:13.898Z,8.27
2023-02-27T03:19:42.484Z,8.27
2023-02-27T03:20:08.977Z,8.28
2023-02-27T03:20:34.017Z,8.28
2023-02-27T03:20:59.732Z,8.28
2023-02-27T03:21:28.611Z,8.25
2023-02-27T03:21:55.417Z,8.23
2023-02-27T03:22:20.561Z,8.28
2023-02-27T03:22:47.617Z,8.28
2023-02-27T03:23:14.048Z,8.30
2023-02-27T03:23:42.739Z,8.32
2023-02-27T03:24:10.311Z,8.32
2023-02-27T03:24:39.828Z,8.34
2023-02-27T03:25:06.334Z,8.31
2023-02-27T03:25:30.346Z,8.31
2023-02-27T03:25:53.834Z,8.32
2023-02-27T03:26:19.986Z,8.30
2023-02-27T03:26:45.567Z,8.30
2023-02-27T03:27:09.175Z,8.32
2023-02-27T03:27:35.636Z,8.30
2023-02-27T03:28:02.138Z,8.35
2023-02-27T03:28:28.993Z,8.32
2023-02-27T03:29:00.850Z,8.31
2023-02-27T03:29:28.320Z,8.32
2023-02-27T03:29:57.670Z,8.32
2023-02-27T03:30:26.311Z,8.32
2023-02-27T03:30:53.502Z,8.31
2023-02-27T03:31:22.579Z,8.30
2023-02-27T03:31:49.908Z,8.29
2023-02-27T03:32:16.432Z,8.26
2023-02-27T03:32:43.150Z,8.24
2023-02-27T03:33:11.816Z,8.22
2023-02-27T03:33:39.785Z,8.10
2023-02-27T03:34:09.090Z,8.18
2023-02-27T03:34:34.943Z,8.13
2023-02-27T03:35:00.267Z,8.12
2023-02-27T03:35:25.515Z,8.14
2023-02-27T03:35:51.477Z,8.20
2023-02-27T03:36:20.575Z,8.19
2023-02-27T03:36:50.981Z,8.23
2023-02-27T03:37:22.936Z,8.14
2023-02-27T03:37:54.668Z,8.20
2023-02-27T03:38:24.956Z,8.14
2023-02-27T03:38:51.588Z,8.21
2023-02-27T03:39:24.198Z,8.20
2023-02-27T03:39:48.972Z,8.15
2023-02-27T03:40:25.026Z,8.17
2023-02-27T03:40:52.708Z,8.19
2023-02-27T03:41:28.393Z,8.16
2023-02-27T03:42:11.764Z,8.17
2023-02-27T03:43:05.731Z,8.13
2023-02-27T03:43:52.748Z,8.11
2023-02-27T03:44:25.805Z,8.09
2023-02-27T03:44:55.872Z,8.09
2023-02-27T03:45:26.586Z,8.11
2023-02-27T03:45:56.740Z,8.11
2023-02-27T03:46:22.222Z,8.10
2023-02-27T03:46:46.926Z,8.03
2023-02-27T03:47:09.270Z,8.10
2023-02-27T03:47:31.924Z,8.08
2023-02-27T03:47:53.964Z,8.05
2023-02-27T03:48:15.801Z,8.06
2023-02-27T03:48:38.609Z,8.06
2023-02-27T03:49:00.255Z,8.03
2023-02-27T03:49:21.892Z,8.04
2023-02-27T03:49:44.487Z,8.03
2023-02-27T03:50:07.985Z,8.07
2023-02-27T03:50:29.871Z,8.08
2023-02-27T03:50:51.636Z,8.08
2023-02-27T03:51:15.208Z,8.13
2023-02-27T03:51:38.054Z,8.12
2023-02-27T03:51:59.695Z,8.14
2023-02-27T03:52:23.468Z,8.15
2023-02-27T03:52:45.712Z,8.05
2023-02-27T03:53:17.604Z,8.16
2023-02-27T03:53:47.600Z,8.14
2023-02-27T03:54:14.315Z,8.14
2023-02-27T03:54:40.357Z,8.13
2023-02-27T03:55:08.118Z,8.09
2023-02-27T03:55:35.918Z,8.09
2023-02-27T03:56:00.955Z,8.06
2023-02-27T03:56:28.282Z,8.05
2023-02-27T03:56:55.770Z,8.04
2023-02-27T03:57:17.422Z,8.04
2023-02-27T03:57:40.699Z,8.06
2023-02-27T03:58:02.498Z,8.04
2023-02-27T03:58:25.831Z,7.92
2023-02-27T03:58:47.732Z,8.00
2023-02-27T03:59:09.721Z,8.01
2023-02-27T03:59:37.623Z,8.03
2023-02-27T04:00:01.942Z,8.01
2023-02-27T04:00:27.443Z,7.98
2023-02-27T04:00:49.366Z,8.01
2023-02-27T04:01:11.714Z,8.01
2023-02-27T04:01:35.411Z,8.02
2023-02-27T04:01:58.874Z,8.03
2023-02-27T04:02:21.237Z,8.04
2023-02-27T04:02:46.392Z,8.03
2023-02-27T04:03:11.838Z,8.01
2023-02-27T04:03:40.987Z,8.00
2023-02-27T04:04:10.442Z,7.92
2023-02-27T04:04:50.806Z,8.01
2023-02-27T04:05:31.532Z,7.98
2023-02-27T04:06:20.431Z,7.98
2023-02-27T04:07:05.380Z,7.95
2023-02-27T04:07:35.893Z,7.97
2023-02-27T04:08:14.188Z,7.96
2023-02-27T04:08:50.737Z,7.93
2023-02-27T04:09:23.957Z,7.94
2023-02-27T04:10:18.591Z,7.94
2023-02-27T04:11:02.582Z,7.96
2023-02-27T04:11:34.512Z,7.96
2023-02-27T04:12:20.973Z,8.00
2023-02-27T04:13:01.741Z,7.87
2023-02-27T04:13:38.900Z,8.03
2023-02-27T04:14:15.515Z,8.02
2023-02-27T04:14:46.631Z,8.03
2023-02-27T04:15:18.570Z,8.03
2023-02-27T04:15:53.029Z,8.03
2023-02-27T04:16:39.676Z,8.02
2023-02-27T04:17:19.034Z,8.00
2023-02-27T04:17:49.771Z,7.99
2023-02-27T04:18:24.997Z,8.03
2023-02-27T04:18:59.758Z,7.99
2023-02-27T04:19:36.895Z,7.96
2023-02-27T04:20:20.919Z,7.95
2023-02-27T04:20:46.624Z,7.95
2023-02-27T04:21:11.356Z,7.96
2023-02-27T04:21:38.337Z,7.98
2023-02-27T04:22:12.790Z,8.02
2023-02-27T04:22:39.950Z,7.99
2023-02-27T04:23:05.451Z,7.97
2023-02-27T04:23:37.971Z,8.05
2023-02-27T04:24:11.949Z,8.04
2023-02-27T04:24:39.441Z,8.06
2023-02-27T04:25:16.568Z,8.08
2023-02-27T04:25:54.793Z,8.12
2023-02-27T04:26:26.589Z,8.15
2023-02-27T04:26:54.740Z,8.10
2023-02-27T04:27:25.146Z,8.14
2023-02-27T04:27:52.768Z,8.17
2023-02-27T04:28:17.584Z,8.15
2023-02-27T04:28:43.833Z,8.16
2023-02-27T04:29:12.052Z,8.16
2023-02-27T04:29:44.429Z,8.17
2023-02-27T04:30:17.469Z,8.14
2023-02-27T04:30:46.807Z,8.11
2023-02-27T04:31:15.768Z,8.13
2023-02-27T04:31:45.680Z,8.13
2023-02-27T04:32:19.822Z,8.09
2023-02-27T04:32:45.136Z,8.08
2023-02-27T04:33:10.862Z,8.07
2023-02-27T04:33:45.930Z,8.07
2023-02-27T04:34:16.022Z,8.05
2023-02-27T04:34:42.368Z,8.06
2023-02-27T04:35:10.194Z,8.03
2023-02-27T04:35:35.991Z,8.04
2023-02-27T04:36:02.842Z,8.05
2023-02-27T04:36:31.083Z,8.08
2023-02-27T04:37:01.240Z,8.07
2023-02-27T04:37:28.796Z,8.07
2023-02-27T04:37:56.886Z,8.09
2023-02-27T04:38:22.932Z,8.07
2023-02-27T04:38:49.167Z,8.01
2023-02-27T04:39:18.063Z,8.06
2023-02-27T04:39:44.667Z,8.05
2023-02-27T04:40:10.294Z,8.06
2023-02-27T04:40:37.542Z,8.09
2023-02-27T04:41:03.896Z,8.05
2023-02-27T04:41:29.952Z,8.06
2023-02-27T04:41:54.894Z,8.04
2023-02-27T04:42:20.981Z,8.09
2023-02-27T04:42:47.285Z,8.09
2023-02-27T04:43:11.694Z,8.07
2023-02-27T04:43:37.427Z,8.08
2023-02-27T04:44:01.709Z,7.95
2023-02-27T04:44:26.980Z,8.13
2023-02-27T04:44:50.343Z,8.15
2023-02-27T04:45:16.813Z,8.17
2023-02-27T04:45:41.338Z,8.19
2023-02-27T04:46:07.534Z,8.21
2023-02-27T04:46:30.955Z,8.19
2023-02-27T04:46:55.172Z,8.18
2023-02-27T04:47:19.140Z,8.16
2023-02-27T04:47:47.739Z,8.18
2023-02-27T04:48:15.783Z,8.18
2023-02-27T04:48:41.430Z,8.16
2023-02-27T04:49:10.172Z,8.19
2023-02-27T04:49:37.829Z,8.18
2023-02-27T04:50:05.206Z,8.19
2023-02-27T04:50:30.511Z,8.17
2023-02-27T04:50:58.787Z,8.12
2023-02-27T04:51:25.850Z,8.14
2023-02-27T04:51:53.002Z,8.13
2023-02-27T04:52:20.725Z,8.14
2023-02-27T04:52:48.469Z,8.13
2023-02-27T04:53:16.005Z,8.14
2023-02-27T04:53:43.330Z,8.15
2023-02-27T04:54:12.570Z,8.09
2023-02-27T04:54:40.784Z,8.13
2023-02-27T04:55:08.366Z,8.15
2023-02-27T04:55:35.159Z,8.14
2023-02-27T04:56:02.423Z,8.13
2023-02-27T04:56:29.055Z,8.11
2023-02-27T04:56:53.882Z,8.09
2023-02-27T04:57:20.560Z,8.06
2023-02-27T04:57:48.402Z,8.06
2023-02-27T04:58:13.917Z,8.08
2023-02-27T04:58:39.557Z,8.07
2023-02-27T04:59:07.569Z,8.05
2023-02-27T04:59:33.685Z,7.95
2023-02-27T04:59:57.915Z,8.04
2023-02-27T05:00:23.310Z,8.00
2023-02-27T05:00:48.554Z,8.03
2023-02-27T05:01:18.244Z,7.98
2023-02-27T05:01:43.624Z,7.88
2023-02-27T05:02:12.112Z,7.94
2023-02-27T05:02:37.979Z,8.00
2023-02-27T05:03:07.061Z,7.99
2023-02-27T05:03:33.028Z,7.92
2023-02-27T05:03:58.361Z,8.00
2023-02-27T05:04:26.366Z,7.97
2023-02-27T05:04:49.943Z,7.97
2023-02-27T05:05:15.212Z,7.99
2023-02-27T05:05:41.159Z,8.01
2023-02-27T05:06:03.145Z,7.99
2023-02-27T05:06:29.404Z,7.96
2023-02-27T05:06:56.161Z,8.03
2023-02-27T05:07:22.099Z,7.95
2023-02-27T05:07:50.438Z,8.04
2023-02-27T05:08:22.419Z,8.04
2023-02-27T05:08:53.898Z,8.05
2023-02-27T05:09:22.543Z,8.07
2023-02-27T05:09:50.676Z,8.06
2023-02-27T05:10:16.370Z,8.05
2023-02-27T05:10:44.458Z,8.04
2023-02-27T05:11:12.570Z,8.06
2023-02-27T05:11:43.856Z,8.00
2023-02-27T05:12:11.221Z,8.01
2023-02-27T05:12:39.808Z,7.98
2023-02-27T05:13:09.690Z,7.97
2023-02-27T05:13:37.573Z,7.96
2023-02-27T05:14:04.773Z,7.96
2023-02-27T05:14:33.501Z,7.96
2023-02-27T05:15:01.280Z,7.98
2023-02-27T05:15:28.288Z,7.99
2023-02-27T05:15:55.672Z,7.98
2023-02-27T05:16:24.102Z,8.00
2023-02-27T05:16:50.341Z,7.98
2023-02-27T05:17:18.189Z,8.01
2023-02-27T05:17:47.554Z,7.93
2023-02-27T05:18:11.827Z,7.77
2023-02-27T05:18:33.799Z,7.99
2023-02-27T05:18:57.617Z,7.98
2023-02-27T05:19:20.764Z,7.98
2023-02-27T05:19:44.027Z,7.97
2023-02-27T05:20:07.363Z,7.97
2023-02-27T05:20:36.347Z,7.95
2023-02-27T05:21:06.738Z,7.94
2023-02-27T05:21:34.284Z,7.92
2023-02-27T05:22:01.898Z,7.93
2023-02-27T05:22:34.830Z,7.91
2023-02-27T05:23:02.238Z,7.91
2023-02-27T05:23:32.156Z,7.91
2023-02-27T05:24:06.405Z,7.89
2023-02-27T05:24:37.013Z,7.95
2023-02-27T05:25:07.037Z,7.95
2023-02-27T05:25:37.931Z,7.96
2023-02-27T05:26:06.905Z,7.97
2023-02-27T05:26:40.936Z,7.95
2023-02-27T05:27:16.737Z,7.98
2023-02-27T05:27:46.836Z,7.99
2023-02-27T05:28:14.845Z,8.00
2023-02-27T05:28:40.629Z,8.00
2023-02-27T05:29:09.199Z,7.97
2023-02-27T05:29:39.925Z,7.96
2023-02-27T05:30:09.185Z,7.97
2023-02-27T05:30:37.578Z,7.97
2023-02-27T05:31:05.050Z,7.97
2023-02-27T05:31:31.918Z,7.91
2023-02-27T05:31:57.391Z,7.93
2023-02-27T05:32:28.858Z,7.92
2023-02-27T05:32:56.464Z,7.91
2023-02-27T05:33:21.113Z,7.89
2023-02-27T05:33:50.050Z,7.90
2023-02-27T05:34:16.799Z,7.88
2023-02-27T05:34:44.517Z,7.82
2023-02-27T05:35:18.648Z,7.89
2023-02-27T05:35:48.688Z,7.87
2023-02-27T05:36:15.920Z,7.85
2023-02-27T05:36:43.722Z,7.86
2023-02-27T05:37:11.409Z,7.85
2023-02-27T05:37:37.228Z,7.86
2023-02-27T05:38:05.231Z,7.88
2023-02-27T05:38:32.322Z,7.81
2023-02-27T05:39:00.155Z,7.86
2023-02-27T05:39:26.983Z,7.64
2023-02-27T05:39:50.763Z,7.85
2023-02-27T05:40:17.892Z,7.83
2023-02-27T05:40:44.278Z,7.84
2023-02-27T05:41:10.503Z,7.85
2023-02-27T05:41:38.174Z,7.86
2023-02-27T05:42:06.051Z,7.87
2023-02-27T05:42:34.294Z,7.87
2023-02-27T05:43:01.415Z,7.87
2023-02-27T05:43:29.702Z,7.89
2023-02-27T05:43:57.025Z,7.89
2023-02-27T05:44:22.237Z,7.93
2023-02-27T05:44:55.269Z,7.92
2023-02-27T05:45:20.559Z,7.90
2023-02-27T05:45:45.983Z,7.91
2023-02-27T05:46:14.629Z,7.89
2023-02-27T05:46:39.130Z,7.79
2023-02-27T05:47:05.715Z,7.88
2023-02-27T05:47:32.284Z,7.87
2023-02-27T05:48:00.432Z,7.84
2023-02-27T05:48:26.967Z,7.87
2023-02-27T05:48:54.606Z,7.86
2023-02-27T05:49:19.158Z,7.90
2023-02-27T05:49:44.305Z,7.92
2023-02-27T05:50:10.057Z,7.93
2023-02-27T05:50:35.991Z,7.91
2023-02-27T05:50:59.225Z,7.91
2023-02-27T05:51:23.781Z,7.94
2023-02-27T05:51:50.365Z,7.94
2023-02-27T05:52:18.308Z,7.95
2023-02-27T05:52:41.311Z,7.94
2023-02-27T05:53:05.917Z,7.78
2023-02-27T05:53:33.401Z,7.89
2023-02-27T05:54:01.013Z,7.94
2023-02-27T05:54:30.094Z,7.84
2023-02-27T05:54:56.813Z,7.92
2023-02-27T05:55:23.921Z,7.91
2023-02-27T05:55:48.874Z,7.95
2023-02-27T05:56:15.959Z,7.94
2023-02-27T05:56:40.134Z,7.96
2023-02-27T05:57:08.690Z,7.96
2023-02-27T05:57:36.670Z,7.91
2023-02-27T05:58:05.948Z,7.94
2023-02-27T05:58:33.612Z,7.95
2023-02-27T05:59:00.458Z,7.88
2023-02-27T05:59:27.171Z,7.92
2023-02-27T05:59:55.353Z,7.87
2023-02-27T06:00:22.800Z,7.93
2023-02-27T06:00:49.227Z,7.93
2023-02-27T06:01:12.315Z,7.94
2023-02-27T06:01:35.093Z,7.96
2023-02-27T06:01:56.804Z,7.95
2023-02-27T06:02:18.502Z,7.96
2023-02-27T06:02:42.535Z,7.99
2023-02-27T06:03:06.830Z,7.98
2023-02-27T06:03:31.210Z,7.97
2023-02-27T06:03:54.049Z,7.96
2023-02-27T06:04:15.755Z,7.96
2023-02-27T06:04:38.400Z,7.93
2023-02-27T06:05:00.105Z,7.96
2023-02-27T06:05:23.923Z,7.93
2023-02-27T06:05:46.045Z,7.95
2023-02-27T06:06:13.430Z,7.95
2023-02-27T06:06:35.814Z,7.95
2023-02-27T06:06:57.914Z,7.93
2023-02-27T06:07:19.549Z,7.94
2023-02-27T06:07:43.601Z,7.94
2023-02-27T06:08:06.219Z,7.92
2023-02-27T06:08:28.684Z,7.94
2023-02-27T06:08:50.433Z,7.93
2023-02-27T06:09:12.062Z,7.92
2023-02-27T06:09:35.308Z,7.94
2023-02-27T06:09:56.991Z,7.93
2023-02-27T06:10:20.345Z,7.92
2023-02-27T06:10:41.973Z,7.92
2023-02-27T06:11:04.677Z,7.93
2023-02-27T06:11:26.460Z,7.92
2023-02-27T06:11:49.455Z,7.92
2023-02-27T06:12:12.917Z,7.92
2023-02-27T06:12:35.678Z,7.92
2023-02-27T06:12:57.271Z,7.93
2023-02-27T06:13:19.029Z,7.90
2023-02-27T06:13:42.066Z,7.89
2023-02-27T06:14:08.106Z,7.85
2023-02-27T06:14:29.756Z,7.90
2023-02-27T06:14:51.738Z,7.89
2023-02-27T06:15:13.536Z,7.91
2023-02-27T06:15:36.382Z,7.91
2023-02-27T06:15:58.117Z,7.89
2023-02-27T06:16:19.982Z,7.88
2023-02-27T06:16:41.684Z,7.89
2023-02-27T06:17:03.416Z,7.82
2023-02-27T06:17:26.108Z,7.90
2023-02-27T06:17:47.942Z,7.92
2023-02-27T06:18:10.480Z,7.92
2023-02-27T06:18:32.105Z,7.95
2023-02-27T06:18:55.455Z,7.88
2023-02-27T06:19:17.330Z,7.91
2023-02-27T06:19:38.972Z,7.96
2023-02-27T06:20:00.637Z,7.94
2023-02-27T06:20:23.333Z,7.94
2023-02-27T06:20:45.703Z,7.94
2023-02-27T06:21:07.376Z,7.94
2023-02-27T06:21:29.279Z,7.94
2023-02-27T06:21:51.819Z,7.92
2023-02-27T06:22:13.438Z,7.88
2023-02-27T06:22:35.229Z,7.94
2023-02-27T06:22:56.838Z,7.86
2023-02-27T06:23:19.469Z,7.94
2023-02-27T06:23:41.075Z,7.94
2023-02-27T06:24:03.123Z,7.99
2023-02-27T06:24:26.424Z,7.99
2023-02-27T06:24:49.057Z,7.93
2023-02-27T06:25:10.853Z,7.72
2023-02-27T06:25:32.981Z,7.99
2023-02-27T06:25:54.689Z,8.00
2023-02-27T06:26:17.841Z,7.88
2023-02-27T06:26:39.477Z,8.01
2023-02-27T06:27:01.093Z,8.00
2023-02-27T06:27:24.212Z,7.85
2023-02-27T06:27:46.784Z,7.97
2023-02-27T06:28:09.267Z,8.02
2023-02-27T06:28:31.075Z,7.95
2023-02-27T06:28:52.772Z,7.98
2023-02-27T06:29:15.360Z,8.03
2023-02-27T06:29:37.022Z,8.05
2023-02-27T06:29:58.767Z,8.04
2023-02-27T06:30:20.566Z,8.05
2023-02-27T06:30:45.332Z,8.01
2023-02-27T06:31:08.480Z,8.03
2023-02-27T06:31:30.287Z,7.99
2023-02-27T06:31:52.007Z,8.03
2023-02-27T06:32:14.923Z,8.04
2023-02-27T06:32:36.598Z,8.05
2023-02-27T06:32:58.322Z,8.04
2023-02-27T06:33:21.364Z,8.04
2023-02-27T06:33:43.462Z,8.06
2023-02-27T06:34:05.079Z,8.04
2023-02-27T06:34:26.755Z,7.79
2023-02-27T06:34:49.354Z,7.98
2023-02-27T06:35:11.371Z,7.96
2023-02-27T06:35:33.154Z,8.01
2023-02-27T06:35:54.822Z,7.99
2023-02-27T06:36:17.618Z,7.91
2023-02-27T06:36:40.023Z,8.00
2023-02-27T06:37:04.152Z,8.02
2023-02-27T06:37:25.957Z,8.04
2023-02-27T06:37:48.629Z,8.02
2023-02-27T06:38:10.647Z,8.04
2023-02-27T06:38:32.272Z,8.03
2023-02-27T06:38:56.230Z,8.00
2023-02-27T06:39:19.174Z,8.03
2023-02-27T06:39:40.978Z,8.01
2023-02-27T06:40:05.873Z,8.03
2023-02-27T06:40:28.477Z,7.84
2023-02-27T06:40:52.878Z,8.02
2023-02-27T06:41:14.575Z,8.04
2023-02-27T06:41:36.164Z,8.02
2023-02-27T06:41:58.756Z,8.03
2023-02-27T06:42:20.924Z,8.03
2023-02-27T06:42:45.299Z,8.02
2023-02-27T06:43:07.935Z,7.82
2023-02-27T06:43:30.110Z,8.04
2023-02-27T06:43:51.988Z,8.01
2023-02-27T06:44:18.522Z,8.02
2023-02-27T06:44:42.431Z,8.00
2023-02-27T06:45:05.783Z,8.01
2023-02-27T06:45:29.466Z,7.95
2023-02-27T06:45:54.130Z,8.06
2023-02-27T06:46:15.876Z,8.06
2023-02-27T06:46:38.814Z,8.10
2023-02-27T06:47:01.223Z,8.07
2023-02-27T06:47:22.875Z,8.05
2023-02-27T06:47:46.755Z,7.92
2023-02-27T06:48:10.212Z,8.09
2023-02-27T06:48:32.673Z,8.07
2023-02-27T06:48:54.247Z,8.10
2023-02-27T06:49:15.922Z,8.11
2023-02-27T06:49:38.497Z,8.08
2023-02-27T06:50:00.213Z,8.13
2023-02-27T06:50:21.909Z,8.12
2023-02-27T06:50:43.532Z,8.11
2023-02-27T06:51:06.950Z,8.09
2023-02-27T06:51:28.529Z,8.07
2023-02-27T06:51:50.162Z,8.09
2023-02-27T06:52:12.774Z,8.08
2023-02-27T06:52:34.397Z,8.06
2023-02-27T06:52:56.105Z,8.09
2023-02-27T06:53:17.715Z,8.08
2023-02-27T06:53:40.314Z,8.10
2023-02-27T06:54:01.921Z,8.10
2023-02-27T06:54:23.790Z,8.08
2023-02-27T06:54:46.324Z,8.09
2023-02-27T06:55:09.785Z,8.07
2023-02-27T06:55:31.454Z,8.00
2023-02-27T06:55:53.128Z,7.91
2023-02-27T06:56:15.651Z,7.97
2023-02-27T06:56:37.514Z,7.98
2023-02-27T06:56:59.399Z,8.02
2023-02-27T06:57:21.031Z,8.03
2023-02-27T06:57:44.983Z,7.91
2023-02-27T06:58:06.616Z,7.99
2023-02-27T06:58:28.268Z,8.01
2023-02-27T06:58:49.917Z,8.00
2023-02-27T06:59:12.693Z,8.01
2023-02-27T06:59:34.284Z,8.07
2023-02-27T06:59:55.849Z,8.07
2023-02-27T07:00:19.713Z,8.08
2023-02-27T07:00:41.748Z,8.11
2023-02-27T07:01:03.369Z,8.13
2023-02-27T07:01:26.337Z,8.13
2023-02-27T07:01:48.415Z,8.15
2023-02-27T07:02:10.983Z,8.04
2023-02-27T07:02:32.845Z,8.13
2023-02-27T07:02:55.419Z,8.13
2023-02-27T07:03:17.117Z,8.17
2023-02-27T07:03:38.890Z,8.18
2023-02-27T07:04:01.795Z,8.19
2023-02-27T07:04:23.381Z,8.13
2023-02-27T07:04:45.164Z,8.16
2023-02-27T07:05:08.491Z,8.18
2023-02-27T07:05:31.533Z,8.21
2023-02-27T07:05:53.275Z,8.23
2023-02-27T07:06:15.029Z,8.21
2023-02-27T07:07:33.870Z,8.24
2023-02-27T07:07:34.216Z,8.20
2023-02-27T07:07:59.925Z,8.29
2023-02-27T07:08:21.569Z,8.29